createdAt,value
2023-05-02T00:00:40.200Z,48.25
2023-05-02T00:02:12.018Z,48.10
2023-05-02T00:03:43.927Z,48.38
2023-05-02T00:05:15.756Z,48.18
2023-05-02T00:06:47.330Z,48.65
2023-05-02T00:08:19.039Z,48.76
2023-05-02T00:09:50.686Z,48.84
2023-05-02T00:11:22.997Z,48.95
2023-05-02T00:12:54.554Z,48.88
2023-05-02T00:14:26.151Z,48.62
2023-05-02T00:15:57.676Z,49.27
2023-05-02T00:17:29.684Z,49.22
2023-05-02T00:19:01.317Z,48.87
2023-05-02T00:20:33.055Z,48.92
2023-05-02T00:22:04.590Z,49.54
2023-05-02T00:23:36.176Z,49.14
2023-05-02T00:25:08.376Z,49.04
2023-05-02T00:26:40.541Z,49.64
2023-05-02T00:28:14.017Z,49.79
2023-05-02T00:29:45.867Z,49.34
2023-05-02T00:31:17.592Z,49.76
2023-05-02T00:32:54.404Z,49.50
2023-05-02T00:34:32.193Z,49.71
2023-05-02T00:36:03.752Z,49.64
2023-05-02T00:37:35.948Z,49.85
2023-05-02T00:39:07.662Z,49.48
2023-05-02T00:40:48.947Z,49.61
2023-05-02T00:42:20.527Z,49.87
2023-05-02T00:43:52.030Z,50.12
2023-05-02T00:45:23.495Z,49.74
2023-05-02T00:46:55.458Z,50.07
2023-05-02T00:48:27.065Z,49.59
2023-05-02T00:49:59.375Z,50.01
2023-05-02T00:51:33.664Z,49.87
2023-05-02T00:53:05.693Z,50.38
2023-05-02T00:54:40.492Z,50.58
2023-05-02T00:56:12.061Z,49.98
2023-05-02T00:57:43.765Z,50.04
2023-05-02T00:59:15.382Z,50.01
2023-05-02T01:00:52.477Z,50.08
2023-05-02T01:02:43.942Z,50.26
2023-05-02T01:04:21.883Z,50.09
2023-05-02T01:06:04.214Z,50.17
2023-05-02T01:07:44.518Z,50.03
2023-05-02T01:09:19.022Z,50.02
2023-05-02T01:10:50.737Z,49.99
2023-05-02T01:12:29.125Z,50.12
2023-05-02T01:14:00.724Z,50.36
2023-05-02T01:15:32.321Z,49.95
2023-05-02T01:17:05.755Z,49.89
2023-05-02T01:18:39.055Z,50.61
2023-05-02T01:20:12.658Z,50.05
2023-05-02T01:21:44.364Z,50.28
2023-05-02T01:23:22.008Z,50.41
2023-05-02T01:25:11.924Z,49.85
2023-05-02T01:26:51.021Z,49.88
2023-05-02T01:28:30.878Z,50.49
2023-05-02T01:30:02.820Z,49.99
2023-05-02T01:31:43.682Z,50.36
2023-05-02T01:33:15.622Z,50.73
2023-05-02T01:34:47.839Z,50.53
2023-05-02T01:36:19.436Z,50.42
2023-05-02T01:37:50.986Z,50.59
2023-05-02T01:39:23.608Z,50.78
2023-05-02T01:40:55.106Z,50.34
2023-05-02T01:42:26.961Z,50.50
2023-05-02T01:43:58.980Z,51.04
2023-05-02T01:45:30.564Z,50.42
2023-05-02T01:47:02.984Z,50.45
2023-05-02T01:48:34.939Z,50.45
2023-05-02T01:50:09.352Z,50.56
2023-05-02T01:51:43.550Z,50.94
2023-05-02T01:53:15.537Z,51.34
2023-05-02T01:54:47.217Z,51.68
2023-05-02T01:56:18.914Z,51.25
2023-05-02T01:57:51.364Z,51.72
2023-05-02T01:59:22.995Z,51.34
2023-05-02T02:00:55.138Z,51.75
2023-05-02T02:02:28.092Z,51.05
2023-05-02T02:03:59.796Z,51.70
2023-05-02T02:05:31.321Z,51.54
2023-05-02T02:07:03.946Z,50.95
2023-05-02T02:08:35.816Z,51.75
2023-05-02T02:10:09.460Z,51.97
2023-05-02T02:11:51.866Z,51.74
2023-05-02T02:13:36.116Z,51.97
2023-05-02T02:15:31.250Z,51.85
2023-05-02T02:17:04.910Z,52.09
2023-05-02T02:18:37.524Z,51.74
2023-05-02T02:20:10.164Z,52.17
2023-05-02T02:21:44.573Z,52.10
2023-05-02T02:23:16.814Z,52.20
2023-05-02T02:24:48.952Z,52.19
2023-05-02T02:26:21.083Z,51.58
2023-05-02T02:27:55.057Z,51.69
2023-05-02T02:29:44.085Z,52.36
2023-05-02T02:36:14.136Z,52.59
2023-05-02T02:38:05.125Z,52.13
2023-05-02T02:39:43.529Z,52.66
2023-05-02T02:41:17.290Z,52.47
2023-05-02T02:42:58.784Z,53.12
2023-05-02T02:44:42.710Z,52.75
2023-05-02T02:46:14.607Z,52.76
2023-05-02T02:48:09.704Z,53.29
2023-05-02T02:49:57.757Z,52.10
2023-05-02T02:51:34.399Z,53.32
2023-05-02T02:53:06.712Z,52.42
2023-05-02T02:54:41.002Z,52.33
2023-05-02T02:56:28.968Z,52.84
2023-05-02T02:58:18.949Z,52.42
2023-05-02T03:00:11.186Z,53.44
2023-05-02T03:01:44.574Z,52.70
2023-05-02T03:03:17.075Z,52.94
2023-05-02T03:04:49.358Z,52.53
2023-05-02T03:06:21.027Z,53.38
2023-05-02T03:07:52.655Z,53.27
2023-05-02T03:09:24.274Z,53.08
2023-05-02T03:10:56.397Z,53.18
2023-05-02T03:12:27.970Z,53.51
2023-05-02T03:13:59.472Z,53.02
2023-05-02T03:15:37.526Z,53.21
2023-05-02T03:17:09.326Z,53.45
2023-05-02T03:18:43.338Z,53.49
2023-05-02T03:20:17.569Z,53.12
2023-05-02T03:21:49.424Z,53.35
2023-05-02T03:23:21.093Z,53.16
2023-05-02T03:24:53.058Z,53.57
2023-05-02T03:26:24.602Z,53.89
2023-05-02T03:27:57.809Z,53.43
2023-05-02T03:29:30.323Z,53.67
2023-05-02T03:31:02.350Z,53.55
2023-05-02T03:32:35.054Z,53.64
2023-05-02T03:34:07.064Z,53.70
2023-05-02T03:35:39.294Z,54.29
2023-05-02T03:37:10.888Z,53.24
2023-05-02T03:38:43.203Z,53.83
2023-05-02T03:40:15.190Z,54.05
2023-05-02T03:41:47.745Z,53.67
2023-05-02T03:43:19.342Z,53.62
2023-05-02T03:44:52.463Z,53.64
2023-05-02T03:46:24.191Z,53.20
2023-05-02T03:47:57.004Z,53.97
2023-05-02T03:49:29.116Z,53.93
2023-05-02T03:51:01.656Z,53.70
2023-05-02T03:52:34.406Z,53.43
2023-05-02T03:54:07.474Z,54.32
2023-05-02T03:55:41.098Z,54.48
2023-05-02T03:57:12.934Z,54.27
2023-05-02T03:58:47.054Z,53.80
2023-05-02T04:00:18.742Z,53.85
2023-05-02T04:01:53.283Z,54.34
2023-05-02T04:03:25.770Z,53.95
2023-05-02T04:05:05.376Z,54.18
2023-05-02T04:06:57.506Z,53.85
2023-05-02T04:12:49.452Z,54.81
2023-05-02T04:14:21.548Z,54.19
2023-05-02T04:15:52.982Z,54.79
2023-05-02T04:17:24.520Z,54.78
2023-05-02T04:18:56.116Z,54.72
2023-05-02T04:20:27.720Z,54.69
2023-05-02T04:21:59.758Z,54.81
2023-05-02T04:23:31.330Z,54.62
2023-05-02T04:25:03.777Z,54.66
2023-05-02T04:26:35.589Z,54.21
2023-05-02T04:28:07.793Z,54.38
2023-05-02T04:29:39.539Z,54.43
2023-05-02T04:31:11.213Z,54.72
2023-05-02T04:32:43.065Z,54.35
2023-05-02T04:34:14.552Z,54.43
2023-05-02T04:35:46.219Z,54.54
2023-05-02T04:37:18.016Z,54.56
2023-05-02T04:38:49.502Z,54.60
2023-05-02T04:40:21.188Z,54.40
2023-05-02T04:41:52.655Z,54.93
2023-05-02T04:43:24.833Z,54.56
2023-05-02T04:44:56.515Z,54.52
2023-05-02T04:46:28.392Z,54.27
2023-05-02T04:48:00.045Z,54.23
2023-05-02T04:49:32.656Z,54.13
2023-05-02T04:51:04.547Z,54.67
2023-05-02T04:52:36.515Z,54.53
2023-05-02T04:54:08.706Z,54.39
2023-05-02T04:55:40.956Z,54.18
2023-05-02T04:57:12.557Z,54.15
2023-05-02T04:58:44.073Z,54.48
2023-05-02T05:00:16.370Z,54.44
2023-05-02T05:01:47.960Z,54.21
2023-05-02T05:03:19.765Z,54.15
2023-05-02T05:04:51.459Z,54.25
2023-05-02T05:06:23.085Z,54.18
2023-05-02T05:07:54.793Z,54.27
2023-05-02T05:09:26.297Z,54.24
2023-05-02T05:10:58.151Z,54.09
2023-05-02T05:12:29.624Z,54.06
2023-05-02T05:14:01.187Z,54.30
2023-05-02T05:15:32.866Z,54.04
2023-05-02T05:17:04.554Z,54.16
2023-05-02T05:18:40.956Z,54.28
2023-05-02T05:20:13.041Z,54.22
2023-05-02T05:21:44.502Z,54.19
2023-05-02T05:23:16.736Z,54.29
2023-05-02T05:24:54.660Z,54.33
2023-05-02T05:26:27.032Z,53.98
2023-05-02T05:27:59.738Z,54.09
2023-05-02T05:29:31.767Z,54.05
2023-05-02T05:31:07.456Z,54.31
2023-05-02T05:32:40.063Z,54.07
2023-05-02T05:34:12.847Z,53.92
2023-05-02T05:35:44.520Z,53.90
2023-05-02T05:37:16.678Z,54.03
2023-05-02T05:38:48.238Z,53.89
2023-05-02T05:40:21.536Z,53.70
2023-05-02T05:41:53.171Z,53.80
2023-05-02T05:43:26.418Z,53.76
2023-05-02T05:44:58.491Z,53.73
2023-05-02T05:46:30.085Z,53.69
2023-05-02T05:48:01.676Z,53.56
2023-05-02T05:49:33.267Z,53.64
2023-05-02T05:51:05.662Z,53.81
2023-05-02T05:52:37.941Z,53.62
2023-05-02T05:54:10.199Z,53.26
2023-05-02T05:55:42.538Z,53.34
2023-05-02T05:57:14.639Z,53.30
2023-05-02T05:58:46.442Z,53.35
2023-05-02T06:00:18.455Z,53.19
2023-05-02T06:01:50.055Z,53.31
2023-05-02T06:03:22.774Z,53.27
2023-05-02T06:04:54.558Z,52.98
2023-05-02T06:06:27.538Z,53.33
2023-05-02T06:07:59.305Z,53.21
2023-05-02T06:09:30.988Z,53.23
2023-05-02T06:11:02.714Z,52.93
2023-05-02T06:12:34.543Z,52.74
2023-05-02T06:14:06.370Z,53.05
2023-05-02T06:15:38.183Z,53.05
2023-05-02T06:17:09.890Z,52.92
2023-05-02T06:18:41.672Z,52.48
2023-05-02T06:20:13.271Z,52.57
2023-05-02T06:21:45.358Z,52.80
2023-05-02T06:23:17.422Z,52.63
2023-05-02T06:24:48.905Z,52.28
2023-05-02T06:26:21.758Z,52.77
2023-05-02T06:27:53.344Z,52.54
2023-05-02T06:29:25.466Z,52.30
2023-05-02T06:30:57.754Z,52.07
2023-05-02T06:32:34.935Z,52.10
2023-05-02T06:34:06.730Z,51.98
2023-05-02T06:35:39.224Z,52.06
2023-05-02T06:37:11.425Z,51.86
2023-05-02T06:38:43.510Z,52.05
2023-05-02T06:40:15.449Z,51.74
2023-05-02T06:41:46.958Z,51.58
2023-05-02T06:43:19.195Z,51.40
2023-05-02T06:44:51.498Z,51.53
2023-05-02T06:46:24.193Z,51.50
2023-05-02T06:47:55.818Z,51.28
2023-05-02T06:49:28.305Z,51.07
2023-05-02T06:50:59.861Z,50.91
2023-05-02T06:52:31.362Z,51.10
2023-05-02T06:54:02.896Z,50.95
2023-05-02T06:55:34.468Z,50.93
2023-05-02T06:57:06.144Z,50.64
2023-05-02T06:58:37.914Z,50.69
2023-05-02T07:00:10.358Z,50.64
2023-05-02T07:01:42.467Z,50.71
2023-05-02T07:03:14.298Z,50.28
2023-05-02T07:04:46.270Z,50.18
2023-05-02T07:06:18.482Z,50.11
2023-05-02T07:07:50.083Z,49.92
2023-05-02T07:09:22.199Z,49.94
2023-05-02T07:10:54.041Z,49.78
2023-05-02T07:12:26.286Z,49.53
2023-05-02T07:13:57.944Z,49.28
2023-05-02T07:15:30.098Z,49.38
2023-05-02T07:17:01.797Z,49.38
2023-05-02T07:18:33.458Z,49.08
2023-05-02T07:20:05.578Z,49.11
2023-05-02T07:21:37.270Z,48.97
2023-05-02T07:23:09.581Z,48.75
2023-05-02T07:24:41.996Z,48.58
2023-05-02T07:26:14.124Z,48.37
2023-05-02T07:27:46.160Z,48.46
2023-05-02T07:29:18.122Z,48.33
2023-05-02T07:30:49.626Z,48.32
2023-05-02T07:32:22.464Z,48.19
2023-05-02T07:33:54.187Z,48.14
2023-05-02T07:35:26.296Z,47.97
2023-05-02T07:36:58.135Z,47.96
2023-05-02T07:38:29.632Z,47.74
2023-05-02T07:40:01.499Z,47.81
2023-05-02T07:41:33.516Z,47.46
2023-05-02T07:43:05.411Z,47.48
2023-05-02T07:44:37.086Z,47.38
2023-05-02T07:46:08.799Z,47.14
2023-05-02T07:47:41.375Z,46.87
2023-05-02T07:49:13.373Z,46.63
2023-05-02T07:50:45.488Z,46.83
2023-05-02T07:52:17.054Z,46.67
2023-05-02T07:53:53.861Z,46.59
2023-05-02T07:55:29.165Z,46.52
2023-05-02T07:57:03.164Z,46.40
2023-05-02T07:58:37.550Z,46.30
2023-05-02T08:00:10.385Z,46.05
2023-05-02T08:01:42.495Z,45.89
2023-05-02T08:03:14.728Z,45.86
2023-05-02T08:04:47.748Z,45.78
2023-05-02T08:06:19.587Z,45.44
2023-05-02T08:07:51.243Z,45.27
2023-05-02T08:09:22.828Z,45.25
2023-05-02T08:10:54.864Z,45.12
2023-05-02T08:12:26.383Z,44.77
2023-05-02T08:13:57.926Z,44.50
2023-05-02T08:15:30.536Z,44.29
2023-05-02T08:17:02.170Z,44.03
2023-05-02T08:18:34.121Z,43.84
2023-05-02T08:20:06.273Z,43.92
2023-05-02T08:21:37.840Z,43.79
2023-05-02T08:23:09.448Z,43.65
2023-05-02T08:24:41.094Z,43.43
2023-05-02T08:26:12.574Z,43.78
2023-05-02T08:27:44.088Z,43.74
2023-05-02T08:29:16.024Z,43.71
2023-05-02T08:30:47.818Z,43.50
2023-05-02T08:32:19.532Z,43.29
2023-05-02T08:33:51.445Z,42.90
2023-05-02T08:35:23.518Z,42.70
2023-05-02T08:36:56.784Z,42.68
2023-05-02T08:38:29.732Z,42.42
2023-05-02T08:40:01.855Z,42.40
2023-05-02T08:41:33.788Z,42.26
2023-05-02T08:43:08.649Z,42.34
2023-05-02T08:44:40.923Z,42.40
2023-05-02T08:46:13.145Z,42.38
2023-05-02T08:47:44.912Z,42.18
2023-05-02T08:49:16.509Z,42.14
2023-05-02T08:50:48.601Z,42.11
2023-05-02T08:52:20.389Z,42.04
2023-05-02T08:53:52.641Z,42.17
2023-05-02T08:55:27.859Z,42.30
2023-05-02T08:57:00.082Z,42.16
2023-05-02T08:58:31.976Z,42.08
2023-05-02T09:00:04.812Z,42.01
2023-05-02T09:01:37.200Z,41.77
2023-05-02T09:03:23.361Z,42.09
2023-05-02T09:04:56.361Z,42.17
2023-05-02T09:06:29.438Z,42.13
2023-05-02T09:08:01.818Z,41.96
2023-05-02T09:09:33.864Z,41.75
2023-05-02T09:11:05.520Z,41.65
2023-05-02T09:12:37.627Z,41.24
2023-05-02T09:14:15.808Z,41.08
2023-05-02T09:16:00.132Z,40.59
2023-05-02T09:17:39.759Z,40.51
2023-05-02T09:19:11.370Z,40.67
2023-05-02T09:20:44.068Z,40.76
2023-05-02T09:22:22.703Z,40.77
2023-05-02T09:23:57.986Z,40.83
2023-05-02T09:25:36.742Z,40.89
2023-05-02T09:27:08.678Z,40.60
2023-05-02T09:28:50.067Z,40.51
2023-05-02T09:30:21.854Z,40.27
2023-05-02T09:31:56.336Z,40.07
2023-05-02T09:33:28.449Z,40.13
2023-05-02T09:35:06.943Z,39.98
2023-05-02T09:36:42.153Z,39.81
2023-05-02T09:38:19.495Z,39.88
2023-05-02T09:40:05.727Z,39.87
2023-05-02T09:41:41.651Z,39.96
2023-05-02T09:43:19.104Z,39.66
2023-05-02T09:44:50.616Z,39.57
2023-05-02T09:46:22.128Z,39.45
2023-05-02T09:47:53.908Z,39.57
2023-05-02T09:49:41.571Z,39.52
2023-05-02T09:51:16.875Z,39.51
2023-05-02T09:53:01.159Z,39.34
2023-05-02T09:54:38.956Z,39.37
2023-05-02T09:56:11.029Z,39.57
2023-05-02T09:57:42.765Z,39.35
2023-05-02T09:59:14.822Z,39.36
2023-05-02T10:00:46.337Z,39.42
2023-05-02T10:02:17.894Z,39.35
2023-05-02T10:03:49.551Z,39.32
2023-05-02T10:05:21.253Z,39.21
2023-05-02T10:06:53.703Z,39.10
2023-05-02T10:08:26.992Z,38.75
2023-05-02T10:09:58.525Z,38.71
2023-05-02T10:11:30.752Z,38.57
2023-05-02T10:13:03.345Z,38.36
2023-05-02T10:14:44.146Z,38.44
2023-05-02T10:16:15.869Z,38.44
2023-05-02T10:17:48.491Z,38.19
2023-05-02T10:19:21.370Z,38.17
2023-05-02T10:20:55.975Z,38.19
2023-05-02T10:22:27.662Z,38.11
2023-05-02T10:23:59.360Z,38.19
2023-05-02T10:25:30.928Z,38.13
2023-05-02T10:27:02.517Z,38.11
2023-05-02T10:28:34.081Z,38.10
2023-05-02T10:30:06.625Z,38.14
2023-05-02T10:31:39.796Z,38.15
2023-05-02T10:33:12.000Z,38.03
2023-05-02T10:34:43.570Z,38.19
2023-05-02T10:36:15.447Z,38.24
2023-05-02T10:37:49.993Z,38.21
2023-05-02T10:39:24.606Z,38.33
2023-05-02T10:40:56.355Z,38.06
2023-05-02T10:42:28.312Z,37.98
2023-05-02T10:44:00.769Z,37.95
2023-05-02T10:45:37.809Z,37.85
2023-05-02T10:47:18.498Z,37.83
2023-05-02T10:49:02.511Z,37.66
2023-05-02T10:50:44.444Z,37.81
2023-05-02T10:52:29.418Z,37.68
2023-05-02T10:54:17.191Z,37.81
2023-05-02T10:56:07.171Z,37.96
2023-05-02T10:58:01.069Z,38.12
2023-05-02T10:59:36.636Z,37.91
2023-05-02T11:01:28.398Z,37.84
2023-05-02T11:03:00.710Z,37.76
2023-05-02T11:04:51.023Z,37.73
2023-05-02T11:06:22.777Z,37.53
2023-05-02T11:08:22.784Z,37.38
2023-05-02T11:10:15.069Z,37.21
2023-05-02T11:11:47.108Z,37.25
2023-05-02T11:13:28.342Z,37.46
2023-05-02T11:15:00.016Z,37.41
2023-05-02T11:16:50.444Z,37.57
2023-05-02T11:18:22.363Z,37.29
2023-05-02T11:19:57.423Z,37.25
2023-05-02T11:21:29.321Z,37.05
2023-05-02T11:23:27.284Z,36.86
2023-05-02T11:24:59.019Z,36.67
2023-05-02T11:26:32.956Z,36.84
2023-05-02T11:28:06.469Z,36.56
2023-05-02T11:29:51.552Z,36.49
2023-05-02T11:31:29.925Z,36.52
2023-05-02T11:33:04.701Z,36.73
2023-05-02T11:34:42.656Z,36.59
2023-05-02T11:36:14.369Z,36.78
2023-05-02T11:37:54.979Z,36.93
2023-05-02T11:39:26.800Z,36.90
2023-05-02T11:40:59.061Z,36.82
2023-05-02T11:42:30.849Z,36.57
2023-05-02T11:44:05.592Z,36.55
2023-05-02T11:45:37.461Z,36.62
2023-05-02T11:47:09.488Z,36.75
2023-05-02T11:48:41.688Z,36.25
2023-05-02T11:50:13.517Z,36.41
2023-05-02T11:51:45.535Z,36.34
2023-05-02T11:53:18.072Z,36.06
2023-05-02T11:54:50.615Z,36.13
2023-05-02T11:56:26.647Z,35.96
2023-05-02T11:57:58.118Z,36.21
2023-05-02T11:59:29.626Z,36.14
2023-05-02T12:01:14.518Z,36.16
2023-05-02T12:02:47.954Z,35.62
2023-05-02T12:04:22.078Z,35.93
2023-05-02T12:05:54.224Z,36.03
2023-05-02T12:07:34.622Z,35.76
2023-05-02T12:09:10.422Z,35.75
2023-05-02T12:10:42.504Z,35.58
2023-05-02T12:12:14.148Z,35.37
2023-05-02T12:13:47.034Z,35.06
2023-05-02T12:15:18.830Z,34.87
2023-05-02T12:16:50.493Z,34.97
2023-05-02T12:18:23.992Z,34.79
2023-05-02T12:19:55.820Z,34.74
2023-05-02T12:21:31.021Z,34.49
2023-05-02T12:23:02.825Z,34.65
2023-05-02T12:24:36.415Z,34.85
2023-05-02T12:26:21.475Z,35.13
2023-05-02T12:27:59.906Z,34.81
2023-05-02T12:29:38.540Z,34.85
2023-05-02T12:31:11.274Z,34.90
2023-05-02T12:32:45.721Z,34.86
2023-05-02T12:34:32.622Z,34.47
2023-05-02T12:36:08.128Z,34.76
2023-05-02T12:37:40.261Z,34.73
2023-05-02T12:39:12.184Z,34.41
2023-05-02T12:40:57.919Z,34.60
2023-05-02T12:42:29.542Z,34.62
2023-05-02T12:44:01.667Z,34.10
2023-05-02T12:45:36.877Z,34.11
2023-05-02T12:47:08.845Z,34.11
2023-05-02T12:48:40.411Z,34.13
2023-05-02T12:50:11.906Z,34.45
2023-05-02T12:51:53.098Z,34.50
2023-05-02T12:53:43.872Z,34.11
2023-05-02T12:55:18.962Z,34.30
2023-05-02T12:56:54.042Z,34.29
2023-05-02T12:58:28.368Z,33.95
2023-05-02T13:00:00.214Z,34.10
2023-05-02T13:01:33.290Z,34.10
2023-05-02T13:03:05.517Z,33.86
2023-05-02T13:04:41.630Z,34.00
2023-05-02T13:06:13.259Z,34.13
2023-05-02T13:07:45.480Z,33.88
2023-05-02T13:09:17.384Z,33.75
2023-05-02T13:10:49.334Z,33.85
2023-05-02T13:12:21.549Z,33.56
2023-05-02T13:13:53.757Z,33.94
2023-05-02T13:15:25.461Z,33.69
2023-05-02T13:16:57.482Z,33.88
2023-05-02T13:18:29.310Z,33.78
2023-05-02T13:20:02.476Z,33.75
2023-05-02T13:21:34.392Z,33.69
2023-05-02T13:23:06.019Z,33.43
2023-05-02T13:24:37.508Z,33.76
2023-05-02T13:26:09.325Z,33.73
2023-05-02T13:27:41.394Z,33.66
2023-05-02T13:29:12.999Z,33.52
2023-05-02T13:30:44.555Z,33.39
2023-05-02T13:32:16.617Z,33.29
2023-05-02T13:33:48.291Z,33.58
2023-05-02T13:35:19.985Z,33.38
2023-05-02T13:36:51.816Z,33.35
2023-05-02T13:38:24.442Z,33.20
2023-05-02T13:39:56.748Z,33.63
2023-05-02T13:41:28.304Z,33.29
2023-05-02T13:43:00.187Z,33.25
2023-05-02T13:44:31.788Z,33.39
2023-05-02T13:46:03.442Z,33.38
2023-05-02T13:47:35.097Z,33.45
2023-05-02T13:49:06.643Z,33.02
2023-05-02T13:50:39.187Z,33.12
2023-05-02T13:52:11.059Z,33.16
2023-05-02T13:53:42.571Z,33.11
2023-05-02T13:55:14.115Z,33.20
2023-05-02T13:56:45.968Z,32.88
2023-05-02T13:58:18.098Z,33.07
2023-05-02T13:59:50.028Z,32.85
2023-05-02T14:01:22.069Z,32.87
2023-05-02T14:02:54.089Z,32.74
2023-05-02T14:04:25.799Z,32.83
2023-05-02T14:05:57.684Z,32.71
2023-05-02T14:07:29.662Z,32.53
2023-05-02T14:09:01.742Z,32.59
2023-05-02T14:10:33.233Z,32.53
2023-05-02T14:12:04.849Z,32.78
2023-05-02T14:13:36.406Z,32.57
2023-05-02T14:15:08.290Z,32.70
2023-05-02T14:16:39.898Z,32.71
2023-05-02T14:18:11.486Z,32.65
2023-05-02T14:19:43.081Z,32.57
2023-05-02T14:21:14.664Z,32.55
2023-05-02T14:22:46.453Z,32.54
2023-05-02T14:24:19.443Z,32.32
2023-05-02T14:25:51.425Z,32.56
2023-05-02T14:27:23.634Z,32.49
2023-05-02T14:28:55.414Z,32.35
2023-05-02T14:30:26.931Z,32.29
2023-05-02T14:31:58.991Z,32.27
2023-05-02T14:33:30.701Z,32.49
2023-05-02T14:35:03.157Z,32.42
2023-05-02T14:36:34.988Z,32.45
2023-05-02T14:38:06.537Z,32.22
2023-05-02T14:39:39.227Z,32.07
2023-05-02T14:41:10.728Z,32.33
2023-05-02T14:42:42.251Z,32.05
2023-05-02T14:44:13.865Z,32.07
2023-05-02T14:45:45.530Z,32.21
2023-05-02T14:47:17.438Z,32.20
2023-05-02T14:48:49.436Z,32.05
2023-05-02T14:50:21.542Z,32.17
2023-05-02T14:51:53.979Z,32.11
2023-05-02T14:53:27.565Z,32.05
2023-05-02T14:55:00.563Z,32.17
2023-05-02T14:56:32.615Z,32.04
2023-05-02T14:58:05.726Z,32.35
2023-05-02T14:59:39.322Z,32.24
2023-05-02T15:01:18.040Z,32.05
2023-05-02T15:02:50.061Z,32.11
2023-05-02T15:04:22.437Z,32.14
2023-05-02T15:05:54.491Z,32.15
2023-05-02T15:07:27.016Z,32.18
2023-05-02T15:08:59.349Z,32.17
2023-05-02T15:10:31.017Z,32.25
2023-05-02T15:12:05.389Z,32.20
2023-05-02T15:13:37.455Z,32.09
2023-05-02T15:15:09.459Z,32.10
2023-05-02T15:16:41.608Z,32.07
2023-05-02T15:18:13.597Z,32.08
2023-05-02T15:19:45.361Z,32.04
2023-05-02T15:21:17.066Z,32.04
2023-05-02T15:22:48.803Z,32.12
2023-05-02T15:24:20.786Z,32.30
2023-05-02T15:25:52.769Z,32.13
2023-05-02T15:27:24.950Z,32.13
2023-05-02T15:28:57.182Z,32.20
2023-05-02T15:30:28.753Z,32.13
2023-05-02T15:32:00.681Z,32.22
2023-05-02T15:33:32.737Z,32.13
2023-05-02T15:35:08.003Z,32.27
2023-05-02T15:36:40.790Z,32.14
2023-05-02T15:38:12.515Z,32.23
2023-05-02T15:39:44.066Z,32.28
2023-05-02T15:41:15.542Z,32.08
2023-05-02T15:42:47.334Z,32.35
2023-05-02T15:44:19.485Z,32.19
2023-05-02T15:45:54.735Z,32.43
2023-05-02T15:47:26.545Z,32.44
2023-05-02T15:48:58.688Z,32.30
2023-05-02T15:50:30.266Z,32.22
2023-05-02T15:52:02.309Z,32.36
2023-05-02T15:53:34.771Z,32.29
2023-05-02T15:55:06.865Z,32.36
2023-05-02T15:56:38.480Z,32.23
2023-05-02T15:58:10.247Z,32.17
2023-05-02T15:59:41.957Z,32.27
2023-05-02T16:01:13.780Z,32.48
2023-05-02T16:02:45.384Z,32.27
2023-05-02T16:04:17.032Z,32.29
2023-05-02T16:05:48.935Z,32.38
2023-05-02T16:07:20.935Z,32.28
2023-05-02T16:08:52.958Z,32.35
2023-05-02T16:10:24.939Z,32.51
2023-05-02T16:11:57.209Z,32.38
2023-05-02T16:13:28.902Z,32.40
2023-05-02T16:15:01.895Z,32.49
2023-05-02T16:16:35.620Z,32.26
2023-05-02T16:18:07.440Z,32.44
2023-05-02T16:19:38.984Z,32.48
2023-05-02T16:21:11.871Z,32.50
2023-05-02T16:22:47.001Z,32.47
2023-05-02T16:24:18.823Z,32.46
2023-05-02T16:25:51.101Z,32.30
2023-05-02T16:27:23.739Z,32.22
2023-05-02T16:28:55.835Z,32.30
2023-05-02T16:30:28.277Z,32.55
2023-05-02T16:32:00.065Z,32.63
2023-05-02T16:33:31.869Z,32.64
2023-05-02T16:35:05.462Z,32.34
2023-05-02T16:36:37.071Z,32.32
2023-05-02T16:38:08.847Z,32.41
2023-05-02T16:39:40.611Z,32.33
2023-05-02T16:41:12.139Z,32.67
2023-05-02T16:42:43.723Z,32.48
2023-05-02T16:44:15.721Z,32.63
2023-05-02T16:45:47.340Z,32.59
2023-05-02T16:47:19.224Z,32.56
2023-05-02T16:48:51.319Z,32.65
2023-05-02T16:50:23.536Z,32.68
2023-05-02T16:51:56.143Z,32.76
2023-05-02T16:53:27.772Z,32.65
2023-05-02T16:54:59.436Z,32.73
2023-05-02T16:56:31.482Z,32.74
2023-05-02T16:58:03.626Z,32.81
2023-05-02T16:59:35.214Z,32.87
2023-05-02T17:01:06.784Z,32.75
2023-05-02T17:02:39.064Z,32.93
2023-05-02T17:04:11.216Z,32.91
2023-05-02T17:05:42.841Z,32.90
2023-05-02T17:07:14.450Z,32.85
2023-05-02T17:08:46.051Z,32.82
2023-05-02T17:10:19.136Z,32.97
2023-05-02T17:11:51.217Z,32.99
2023-05-02T17:13:23.234Z,33.01
2023-05-02T17:14:55.294Z,32.81
2023-05-02T17:16:27.581Z,33.09
2023-05-02T17:17:59.321Z,32.96
2023-05-02T17:19:31.448Z,33.05
2023-05-02T17:21:04.045Z,33.12
2023-05-02T17:22:36.114Z,33.05
2023-05-02T17:24:07.863Z,33.06
2023-05-02T17:25:39.498Z,32.99
2023-05-02T17:27:11.514Z,32.95
2023-05-02T17:28:43.889Z,33.24
2023-05-02T17:30:15.951Z,33.15
2023-05-02T17:31:47.632Z,33.17
2023-05-02T17:33:19.427Z,33.33
2023-05-02T17:34:51.331Z,33.28
2023-05-02T17:36:23.102Z,33.10
2023-05-02T17:37:55.854Z,33.08
2023-05-02T17:39:27.782Z,33.26
2023-05-02T17:40:59.428Z,33.18
2023-05-02T17:42:31.185Z,33.36
2023-05-02T17:44:03.197Z,33.32
2023-05-02T17:45:36.387Z,33.17
2023-05-02T17:47:08.740Z,33.28
2023-05-02T17:48:43.173Z,33.46
2023-05-02T17:50:14.898Z,33.25
2023-05-02T17:51:46.647Z,33.15
2023-05-02T17:53:18.253Z,33.54
2023-05-02T17:54:49.794Z,33.37
2023-05-02T17:56:21.706Z,33.61
2023-05-02T17:57:53.500Z,33.38
2023-05-02T17:59:27.400Z,33.51
2023-05-02T18:01:07.160Z,33.60
2023-05-02T18:02:39.029Z,33.69
2023-05-02T18:04:13.198Z,33.42
2023-05-02T18:05:47.411Z,33.59
2023-05-02T18:07:24.158Z,33.83
2023-05-02T18:08:55.746Z,33.73
2023-05-02T18:10:27.622Z,33.81
2023-05-02T18:12:00.683Z,33.96
2023-05-02T18:13:32.539Z,33.92
2023-05-02T18:15:06.024Z,33.82
2023-05-02T18:16:38.604Z,33.73
2023-05-02T18:18:10.473Z,34.01
2023-05-02T18:19:42.642Z,34.07
2023-05-02T18:21:21.215Z,33.92
2023-05-02T18:22:52.901Z,33.93
2023-05-02T18:24:24.779Z,34.01
2023-05-02T18:25:56.373Z,34.14
2023-05-02T18:27:28.708Z,34.12
2023-05-02T18:29:00.375Z,33.99
2023-05-02T18:30:32.365Z,34.01
2023-05-02T18:32:04.586Z,34.12
2023-05-02T18:33:36.883Z,34.03
2023-05-02T18:35:10.936Z,34.32
2023-05-02T18:36:45.351Z,34.06
2023-05-02T18:38:17.678Z,34.26
2023-05-02T18:39:49.529Z,34.22
2023-05-02T18:41:21.176Z,34.45
2023-05-02T18:42:53.090Z,34.08
2023-05-02T18:44:24.674Z,34.63
2023-05-02T18:45:56.337Z,34.44
2023-05-02T18:47:27.982Z,34.59
2023-05-02T18:49:00.489Z,34.38
2023-05-02T18:50:32.137Z,34.59
2023-05-02T18:52:04.017Z,34.15
2023-05-02T18:53:35.899Z,34.57
2023-05-02T18:55:08.437Z,34.74
2023-05-02T18:56:41.567Z,34.72
2023-05-02T18:58:13.228Z,34.57
2023-05-02T18:59:45.008Z,34.56
2023-05-02T19:01:17.224Z,34.79
2023-05-02T19:02:51.885Z,34.60
2023-05-02T19:04:23.846Z,34.84
2023-05-02T19:05:57.721Z,34.68
2023-05-02T19:07:29.797Z,34.62
2023-05-02T19:09:02.068Z,34.79
2023-05-02T19:10:34.376Z,34.33
2023-05-02T19:12:06.489Z,34.85
2023-05-02T19:13:38.961Z,34.93
2023-05-02T19:15:11.130Z,34.95
2023-05-02T19:16:42.746Z,34.71
2023-05-02T19:18:15.617Z,34.82
2023-05-02T19:19:48.247Z,34.83
2023-05-02T19:21:20.065Z,34.87
2023-05-02T19:22:54.091Z,34.96
2023-05-02T19:24:29.420Z,35.16
2023-05-02T19:26:01.666Z,35.25
2023-05-02T19:27:33.560Z,34.82
2023-05-02T19:29:05.097Z,34.88
2023-05-02T19:30:36.853Z,35.41
2023-05-02T19:32:08.544Z,35.12
2023-05-02T19:33:40.551Z,35.38
2023-05-02T19:35:12.612Z,35.46
2023-05-02T19:36:44.576Z,35.44
2023-05-02T19:38:16.689Z,35.43
2023-05-02T19:39:48.684Z,35.15
2023-05-02T19:41:21.601Z,35.22
2023-05-02T19:42:53.400Z,35.38
2023-05-02T19:44:25.171Z,35.19
2023-05-02T19:45:59.025Z,35.40
2023-05-02T19:47:32.614Z,35.44
2023-05-02T19:49:05.069Z,35.51
2023-05-02T19:50:37.902Z,35.56
2023-05-02T19:52:10.490Z,35.20
2023-05-02T19:53:42.767Z,35.69
2023-05-02T19:55:16.287Z,35.52
2023-05-02T19:56:49.020Z,35.14
2023-05-02T19:58:21.492Z,35.61
2023-05-02T19:59:53.108Z,35.47
2023-05-02T20:01:26.181Z,35.59
2023-05-02T20:02:58.421Z,35.36
2023-05-02T20:04:30.146Z,35.65
2023-05-02T20:06:02.030Z,35.61
2023-05-02T20:07:34.286Z,35.41
2023-05-02T20:09:05.836Z,35.26
2023-05-02T20:10:37.993Z,35.43
2023-05-02T20:12:09.641Z,35.50